createdAt,value
2018-12-06T00:00:26.433Z,83.63
2018-12-06T00:01:26.415Z,84.12
2018-12-06T00:02:26.408Z,84.05
2018-12-06T00:03:26.393Z,83.84
2018-12-06T00:04:26.387Z,83.80
2018-12-06T00:05:26.383Z,83.63
2018-12-06T00:06:26.368Z,83.95
2018-12-06T00:07:26.352Z,83.42
2018-12-06T00:08:26.337Z,83.95
2018-12-06T00:09:26.326Z,84.22
2018-12-06T00:10:26.315Z,84.47
2018-12-06T00:11:26.305Z,84.33
2018-12-06T00:12:26.298Z,83.91
2018-12-06T00:13:26.281Z,83.91
2018-12-06T00:14:26.276Z,83.49
2018-12-06T00:15:26.264Z,83.18
2018-12-06T00:16:26.255Z,83.91
2018-12-06T00:17:26.237Z,84.05
2018-12-06T00:18:26.231Z,83.70
2018-12-06T00:19:26.220Z,83.80
2018-12-06T00:20:26.209Z,83.95
2018-12-06T00:21:26.194Z,83.70
2018-12-06T00:22:26.182Z,83.49
2018-12-06T00:23:26.172Z,83.18
2018-12-06T00:24:26.159Z,83.59
2018-12-06T00:25:26.154Z,84.05
2018-12-06T00:26:26.144Z,83.53
2018-12-06T00:27:26.140Z,83.59
2018-12-06T00:28:26.121Z,83.49
2018-12-06T00:29:45.738Z,83.39
2018-12-06T00:31:07.653Z,83.59
2018-12-06T00:33:35.083Z,83.28
2018-12-06T00:37:29.646Z,82.65
2018-12-06T00:38:47.775Z,82.97
2018-12-06T00:40:11.669Z,83.28
2018-12-06T00:41:31.282Z,83.32
2018-12-06T00:43:04.463Z,83.49
2018-12-06T00:44:24.088Z,83.07
2018-12-06T00:45:46.490Z,82.97
2018-12-06T00:46:46.466Z,83.49
2018-12-06T00:47:46.463Z,83.18
2018-12-06T00:48:46.451Z,82.87
2018-12-06T00:49:46.434Z,83.18
2018-12-06T00:50:46.427Z,83.28
2018-12-06T00:51:46.421Z,83.07
2018-12-06T00:52:46.405Z,83.07
2018-12-06T00:53:46.397Z,83.28
2018-12-06T00:54:46.379Z,83.39
2018-12-06T00:55:46.374Z,83.28
2018-12-06T00:56:46.361Z,83.49
2018-12-06T00:57:46.349Z,83.28
2018-12-06T00:58:46.338Z,83.07
2018-12-06T00:59:46.325Z,83.07
2018-12-06T01:00:46.312Z,82.97
2018-12-06T01:01:46.305Z,82.76
2018-12-06T01:02:46.290Z,82.62
2018-12-06T01:03:46.280Z,82.55
2018-12-06T01:04:46.273Z,82.76
2018-12-06T01:05:46.264Z,82.51
2018-12-06T01:06:46.250Z,82.51
2018-12-06T01:07:46.234Z,82.76
2018-12-06T01:08:46.223Z,83.07
2018-12-06T01:09:46.219Z,82.51
2018-12-06T01:10:46.201Z,82.72
2018-12-06T01:11:46.195Z,82.93
2018-12-06T01:12:46.184Z,82.51
2018-12-06T01:13:46.170Z,82.62
2018-12-06T01:14:46.157Z,82.10
2018-12-06T01:15:46.150Z,81.79
2018-12-06T01:16:46.137Z,82.20
2018-12-06T01:17:46.129Z,82.31
2018-12-06T01:18:46.121Z,82.20
2018-12-06T01:19:46.109Z,82.10
2018-12-06T01:20:46.097Z,82.62
2018-12-06T01:21:46.083Z,82.31
2018-12-06T01:22:46.144Z,82.20
2018-12-06T01:23:46.062Z,82.31
2018-12-06T01:24:46.051Z,81.89
2018-12-06T01:25:46.042Z,81.99
2018-12-06T01:26:46.025Z,81.79
2018-12-06T01:27:46.013Z,81.99
2018-12-06T01:28:46.002Z,82.10
2018-12-06T01:29:45.991Z,81.99
2018-12-06T01:30:45.985Z,81.75
2018-12-06T01:31:45.972Z,81.68
2018-12-06T01:32:45.958Z,81.89
2018-12-06T01:33:45.951Z,81.47
2018-12-06T01:34:45.941Z,81.43
2018-12-06T01:35:45.925Z,81.54
2018-12-06T01:36:45.915Z,80.81
2018-12-06T01:37:45.910Z,81.43
2018-12-06T01:38:45.901Z,81.23
2018-12-06T01:39:45.881Z,81.75
2018-12-06T01:40:45.876Z,81.96
2018-12-06T01:41:45.861Z,81.12
2018-12-06T01:42:45.857Z,80.81
2018-12-06T01:43:45.842Z,81.02
2018-12-06T01:44:45.831Z,81.02
2018-12-06T01:45:45.815Z,81.12
2018-12-06T01:46:45.804Z,80.91
2018-12-06T01:47:45.800Z,81.43
2018-12-06T01:48:45.787Z,81.02
2018-12-06T01:49:45.771Z,81.02
2018-12-06T01:50:45.765Z,81.02
2018-12-06T01:51:45.753Z,80.81
2018-12-06T01:52:45.741Z,80.71
2018-12-06T01:53:45.726Z,81.02
2018-12-06T01:54:45.718Z,81.12
2018-12-06T01:55:45.711Z,81.02
2018-12-06T01:56:45.699Z,80.60
2018-12-06T01:57:45.682Z,81.12
2018-12-06T01:58:45.672Z,81.40
2018-12-06T01:59:45.665Z,80.50
2018-12-06T02:00:45.674Z,80.71
2018-12-06T02:01:45.643Z,80.46
2018-12-06T02:02:45.627Z,80.71
2018-12-06T02:03:45.621Z,80.40
2018-12-06T02:04:45.606Z,80.50
2018-12-06T02:05:45.594Z,80.19
2018-12-06T02:06:45.588Z,80.26
2018-12-06T02:07:45.577Z,80.40
2018-12-06T02:08:45.567Z,80.57
2018-12-06T02:09:45.602Z,80.71
2018-12-06T02:10:45.541Z,80.08
2018-12-06T02:11:45.529Z,80.19
2018-12-06T02:12:45.517Z,79.87
2018-12-06T02:13:45.505Z,80.19
2018-12-06T02:14:45.500Z,80.50
2018-12-06T02:15:45.488Z,80.71
2018-12-06T02:16:45.478Z,81.43
2018-12-06T02:17:45.467Z,80.71
2018-12-06T02:18:45.452Z,80.29
2018-12-06T02:19:45.444Z,80.71
2018-12-06T02:20:45.429Z,80.26
2018-12-06T02:21:45.422Z,80.81
2018-12-06T02:22:45.413Z,80.57
2018-12-06T02:23:45.398Z,80.29
2018-12-06T02:24:45.386Z,80.08
2018-12-06T02:25:45.379Z,80.40
2018-12-06T02:26:45.369Z,80.05
2018-12-06T02:27:45.352Z,80.67
2018-12-06T02:28:45.342Z,80.15
2018-12-06T02:29:45.330Z,80.05
2018-12-06T02:30:45.323Z,79.94
2018-12-06T02:31:45.308Z,79.83
2018-12-06T02:32:45.302Z,80.46
2018-12-06T02:33:45.286Z,79.42
2018-12-06T02:34:45.275Z,80.57
2018-12-06T02:35:45.267Z,80.15
2018-12-06T02:36:45.258Z,80.26
2018-12-06T02:37:45.242Z,79.94
2018-12-06T02:38:45.238Z,80.26
2018-12-06T02:39:45.222Z,79.73
2018-12-06T02:40:45.214Z,80.05
2018-12-06T02:41:45.206Z,80.46
2018-12-06T02:42:45.194Z,80.05
2018-12-06T02:43:45.181Z,80.57
2018-12-06T02:44:45.164Z,80.15
2018-12-06T02:45:45.155Z,79.98
2018-12-06T02:46:45.153Z,80.08
2018-12-06T02:47:45.131Z,80.36
2018-12-06T02:48:45.120Z,79.94
2018-12-06T02:49:45.115Z,79.83
2018-12-06T02:50:45.194Z,79.73
2018-12-06T02:51:45.102Z,80.40
2018-12-06T02:52:45.084Z,79.46
2018-12-06T02:53:45.069Z,79.98
2018-12-06T02:54:45.059Z,80.05
2018-12-06T02:55:45.044Z,80.46
2018-12-06T02:56:45.039Z,80.05
2018-12-06T02:57:45.027Z,80.15
2018-12-06T02:58:45.025Z,80.46
2018-12-06T02:59:45.001Z,80.36
2018-12-06T03:00:44.989Z,80.26
2018-12-06T03:01:44.978Z,79.94
2018-12-06T03:02:44.971Z,79.63
2018-12-06T03:03:44.966Z,79.21
2018-12-06T03:04:44.945Z,79.21
2018-12-06T03:05:44.935Z,80.36
2018-12-06T03:06:44.928Z,79.42
2018-12-06T03:07:44.920Z,79.04
2018-12-06T03:08:44.902Z,79.21
2018-12-06T03:09:46.303Z,79.73
2018-12-06T03:10:44.883Z,80.05
2018-12-06T03:11:44.874Z,79.35
2018-12-06T03:12:44.870Z,79.46
2018-12-06T03:13:44.874Z,79.63
2018-12-06T03:14:44.840Z,79.42
2018-12-06T03:15:44.826Z,79.32
2018-12-06T03:16:44.816Z,79.94
2018-12-06T03:17:44.802Z,78.90
2018-12-06T03:18:44.792Z,79.32
2018-12-06T03:19:44.787Z,79.25
2018-12-06T03:20:44.773Z,79.42
2018-12-06T03:21:44.762Z,79.42
2018-12-06T03:22:44.752Z,79.21
2018-12-06T03:23:44.737Z,79.00
2018-12-06T03:24:44.725Z,79.32
2018-12-06T03:25:44.718Z,79.00
2018-12-06T03:26:44.712Z,79.42
2018-12-06T03:27:44.693Z,78.69
2018-12-06T03:28:44.705Z,78.59
2018-12-06T03:29:44.675Z,79.11
2018-12-06T03:30:44.684Z,78.90
2018-12-06T03:31:44.655Z,78.69
2018-12-06T03:32:44.638Z,79.21
2018-12-06T03:33:44.641Z,79.21
2018-12-06T03:34:44.621Z,79.32
2018-12-06T03:35:44.605Z,79.00
2018-12-06T03:36:44.596Z,79.32
2018-12-06T03:37:44.590Z,78.59
2018-12-06T03:38:44.578Z,78.90
2018-12-06T03:39:44.561Z,79.11
2018-12-06T03:40:44.551Z,78.90
2018-12-06T03:41:44.547Z,78.80
2018-12-06T03:42:44.529Z,77.96
2018-12-06T03:43:44.525Z,78.38
2018-12-06T03:44:44.512Z,78.49
2018-12-06T03:46:02.635Z,78.17
2018-12-06T03:47:26.061Z,77.44
2018-12-06T03:48:26.021Z,78.28
2018-12-06T03:50:07.561Z,76.82
2018-12-06T03:51:07.554Z,76.99
2018-12-06T03:52:49.605Z,77.30
2018-12-06T03:53:49.569Z,76.92
2018-12-06T03:54:49.563Z,77.30
2018-12-06T03:55:49.555Z,77.20
2018-12-06T03:56:49.543Z,77.30
2018-12-06T03:57:49.527Z,77.20
2018-12-06T03:58:49.516Z,77.20
2018-12-06T03:59:49.509Z,77.44
2018-12-06T04:00:49.495Z,77.51
2018-12-06T04:01:49.482Z,77.13
2018-12-06T04:02:49.471Z,76.26
2018-12-06T04:03:49.473Z,76.72
2018-12-06T04:04:49.449Z,76.89
2018-12-06T04:05:49.443Z,75.54
2018-12-06T04:06:49.427Z,76.26
2018-12-06T04:07:49.417Z,75.85
2018-12-06T04:08:49.415Z,76.16
2018-12-06T04:09:49.401Z,75.74
2018-12-06T04:10:49.388Z,75.74
2018-12-06T04:11:49.383Z,76.47
2018-12-06T04:12:49.369Z,76.37
2018-12-06T04:13:49.359Z,75.95
2018-12-06T04:14:49.342Z,75.85
2018-12-06T04:15:49.335Z,75.74
2018-12-06T04:16:49.320Z,75.01
2018-12-06T04:17:49.313Z,75.01
2018-12-06T04:18:49.297Z,75.09
2018-12-06T04:19:49.303Z,75.12
2018-12-06T04:20:49.281Z,74.57
2018-12-06T04:21:49.269Z,74.08
2018-12-06T04:22:49.255Z,74.70
2018-12-06T04:23:49.243Z,74.60
2018-12-06T04:24:49.236Z,74.46
2018-12-06T04:25:49.228Z,74.67
2018-12-06T04:26:49.294Z,74.18
2018-12-06T04:27:49.204Z,74.91
2018-12-06T04:28:49.188Z,74.88
2018-12-06T04:29:49.186Z,74.88
2018-12-06T04:30:49.182Z,74.25
2018-12-06T04:31:49.165Z,74.35
2018-12-06T04:32:49.164Z,74.25
2018-12-06T04:33:49.139Z,74.46
2018-12-06T04:34:49.131Z,73.94
2018-12-06T04:35:49.116Z,73.94
2018-12-06T04:36:49.101Z,73.94
2018-12-06T04:37:49.092Z,73.52
2018-12-06T04:38:49.084Z,73.63
2018-12-06T04:39:49.074Z,74.04
2018-12-06T04:40:49.063Z,73.83
2018-12-06T04:41:49.051Z,73.52
2018-12-06T04:42:49.042Z,73.73
2018-12-06T04:43:49.025Z,73.83
2018-12-06T04:44:49.019Z,74.15
2018-12-06T04:45:49.007Z,73.11
2018-12-06T04:46:49.001Z,73.42
2018-12-06T04:47:48.986Z,73.91
2018-12-06T04:48:48.987Z,73.11
2018-12-06T04:49:48.960Z,73.11
2018-12-06T04:50:48.956Z,73.39
2018-12-06T04:51:48.939Z,73.52
2018-12-06T04:52:48.931Z,73.60
2018-12-06T04:53:48.929Z,73.80
2018-12-06T04:54:48.905Z,74.11
2018-12-06T04:55:48.894Z,74.04
2018-12-06T04:56:48.891Z,74.11
2018-12-06T04:57:48.873Z,73.80
2018-12-06T04:58:48.863Z,73.49
2018-12-06T04:59:48.858Z,73.28
2018-12-06T05:00:48.844Z,72.76
2018-12-06T05:01:48.828Z,72.86
2018-12-06T05:02:48.818Z,72.76
2018-12-06T05:03:48.812Z,73.28
2018-12-06T05:04:48.802Z,72.45
2018-12-06T05:05:48.786Z,72.86
2018-12-06T05:06:48.774Z,72.86
2018-12-06T05:07:48.767Z,72.97
2018-12-06T05:08:48.752Z,73.60
2018-12-06T05:09:48.745Z,72.55
2018-12-06T05:10:48.741Z,72.34
2018-12-06T05:11:48.725Z,72.80
2018-12-06T05:12:48.709Z,73.07
2018-12-06T05:13:48.697Z,72.55
2018-12-06T05:14:48.687Z,72.86
2018-12-06T05:15:48.681Z,72.66
2018-12-06T05:16:48.669Z,72.66
2018-12-06T05:17:48.660Z,72.66
2018-12-06T05:18:48.646Z,72.86
2018-12-06T05:19:48.632Z,73.28
2018-12-06T05:20:48.622Z,72.76
2018-12-06T05:21:48.615Z,72.66
2018-12-06T05:22:48.607Z,73.49
2018-12-06T05:23:48.591Z,73.39
2018-12-06T05:24:48.581Z,73.91
2018-12-06T05:25:48.565Z,73.70
2018-12-06T05:26:48.559Z,72.76
2018-12-06T05:27:48.544Z,72.66
2018-12-06T05:28:48.539Z,74.01
2018-12-06T05:29:48.526Z,73.97
2018-12-06T05:30:48.511Z,73.18
2018-12-06T05:31:48.500Z,72.97
2018-12-06T05:32:48.488Z,72.97
2018-12-06T05:33:48.491Z,73.80
2018-12-06T05:34:48.467Z,73.60
2018-12-06T05:35:48.461Z,73.70
2018-12-06T05:36:48.445Z,72.66
2018-12-06T05:37:48.443Z,72.66
2018-12-06T05:38:48.428Z,72.76
2018-12-06T05:39:48.426Z,72.86
2018-12-06T05:40:48.401Z,72.66
2018-12-06T05:41:48.394Z,72.86
2018-12-06T05:42:48.383Z,73.28
2018-12-06T05:43:48.369Z,73.39
2018-12-06T05:44:48.361Z,72.55
2018-12-06T05:45:48.349Z,72.86
2018-12-06T05:46:48.335Z,72.66
2018-12-06T05:47:48.329Z,72.97
2018-12-06T05:48:48.311Z,72.52
2018-12-06T05:49:48.306Z,72.76
2018-12-06T05:50:48.295Z,72.55
2018-12-06T05:51:48.285Z,71.80
2018-12-06T05:52:48.275Z,71.93
2018-12-06T05:53:48.264Z,72.11
2018-12-06T05:54:48.253Z,72.21
2018-12-06T05:55:48.237Z,72.21
2018-12-06T05:56:48.223Z,71.48
2018-12-06T05:57:48.353Z,71.69
2018-12-06T05:58:48.202Z,72.21
2018-12-06T05:59:48.193Z,71.28
2018-12-06T06:00:48.179Z,71.28
2018-12-06T06:01:48.176Z,71.69
2018-12-06T06:02:48.158Z,71.59
2018-12-06T06:03:48.149Z,71.28
2018-12-06T06:04:48.138Z,71.17
2018-12-06T06:05:48.124Z,71.28
2018-12-06T06:06:48.118Z,70.86
2018-12-06T06:07:48.108Z,71.17
2018-12-06T06:08:48.093Z,71.48
2018-12-06T06:09:48.080Z,70.23
2018-12-06T06:10:48.074Z,70.75
2018-12-06T06:11:48.065Z,70.86
2018-12-06T06:12:48.047Z,70.65
2018-12-06T06:13:48.036Z,70.75
2018-12-06T06:14:48.030Z,70.86
2018-12-06T06:15:48.019Z,69.82
2018-12-06T06:16:48.005Z,70.65
2018-12-06T06:17:47.991Z,69.71
2018-12-06T06:18:47.983Z,69.79
2018-12-06T06:19:47.972Z,69.71
2018-12-06T06:20:47.963Z,70.54
2018-12-06T06:21:47.952Z,69.61
2018-12-06T06:22:47.940Z,69.92
2018-12-06T06:23:47.929Z,69.27
2018-12-06T06:24:47.923Z,69.37
2018-12-06T06:25:47.910Z,69.27
2018-12-06T06:26:47.897Z,70.13
2018-12-06T06:27:47.885Z,71.59
2018-12-06T06:28:47.875Z,73.84
2018-12-06T06:29:47.869Z,73.43
2018-12-06T06:30:47.848Z,73.43
2018-12-06T06:31:47.841Z,74.53
2018-12-06T06:32:47.830Z,71.11
2018-12-06T06:33:47.814Z,69.68
2018-12-06T06:34:47.806Z,69.24
2018-12-06T06:35:47.796Z,69.17
2018-12-06T06:36:47.786Z,69.37
2018-12-06T06:37:47.770Z,67.82
2018-12-06T06:38:47.758Z,68.65
2018-12-06T06:39:47.751Z,69.37
2018-12-06T06:40:47.744Z,68.65
2018-12-06T06:41:47.731Z,67.82
2018-12-06T06:42:47.720Z,68.75
2018-12-06T06:43:47.704Z,69.17
2018-12-06T06:44:47.693Z,68.75
2018-12-06T06:45:47.682Z,69.06
2018-12-06T06:46:47.681Z,68.75
2018-12-06T06:47:47.667Z,69.37
2018-12-06T06:48:47.650Z,69.58
2018-12-06T06:49:47.638Z,68.96
2018-12-06T06:50:47.628Z,69.27
2018-12-06T06:51:47.617Z,69.27
2018-12-06T06:52:47.615Z,69.48
2018-12-06T06:53:47.597Z,69.68
2018-12-06T06:54:47.582Z,69.48
2018-12-06T06:55:47.578Z,69.27
2018-12-06T06:56:47.570Z,69.06
2018-12-06T06:57:47.550Z,69.06
2018-12-06T06:58:47.537Z,70.00
2018-12-06T06:59:47.531Z,68.75
2018-12-06T07:00:47.519Z,69.17
2018-12-06T07:01:47.504Z,69.17
2018-12-06T07:02:47.494Z,69.17
2018-12-06T07:03:47.484Z,69.58
2018-12-06T07:04:47.482Z,69.68
2018-12-06T07:05:47.470Z,69.37
2018-12-06T07:06:47.453Z,68.65
2018-12-06T07:07:47.482Z,69.27
2018-12-06T07:08:47.445Z,68.65
2018-12-06T07:09:47.424Z,69.06
2018-12-06T07:10:47.432Z,69.06
2018-12-06T07:11:47.398Z,68.96
2018-12-06T07:12:47.382Z,69.06
2018-12-06T07:13:47.383Z,68.82
2018-12-06T07:14:47.364Z,69.17
2018-12-06T07:15:47.354Z,68.44
2018-12-06T07:16:47.343Z,69.17
2018-12-06T07:17:47.332Z,70.00
2018-12-06T07:18:47.323Z,69.27
2018-12-06T07:19:47.310Z,71.34
2018-12-06T07:20:47.304Z,69.55
2018-12-06T07:21:47.283Z,69.13
2018-12-06T07:22:47.273Z,70.69
2018-12-06T07:23:47.262Z,69.45
2018-12-06T07:24:47.260Z,69.65
2018-12-06T07:25:47.247Z,69.13
2018-12-06T07:26:47.262Z,68.51
2018-12-06T07:27:47.216Z,67.79
2018-12-06T07:28:47.205Z,68.62
2018-12-06T07:29:48.554Z,67.89
2018-12-06T07:30:47.183Z,69.03
2018-12-06T07:31:47.178Z,68.72
2018-12-06T07:32:47.161Z,67.79
2018-12-06T07:33:47.150Z,67.47
2018-12-06T07:34:47.139Z,67.27
2018-12-06T07:35:47.128Z,68.93
2018-12-06T07:36:47.119Z,68.82
2018-12-06T07:37:47.106Z,69.24
2018-12-06T07:38:47.098Z,69.86
2018-12-06T07:39:47.088Z,69.34
2018-12-06T07:40:47.077Z,69.13
2018-12-06T07:41:47.060Z,68.20
2018-12-06T07:42:47.058Z,67.68
2018-12-06T07:43:47.044Z,68.62
2018-12-06T07:44:47.039Z,67.47
2018-12-06T07:45:47.028Z,67.61
2018-12-06T07:46:47.010Z,68.82
2018-12-06T07:47:47.000Z,67.37
2018-12-06T07:48:46.988Z,68.13
2018-12-06T07:49:46.977Z,69.03
2018-12-06T07:50:46.961Z,68.51
2018-12-06T07:51:46.957Z,68.93
2018-12-06T07:52:46.941Z,68.82
2018-12-06T07:53:46.933Z,68.82
2018-12-06T07:54:46.928Z,68.93
2018-12-06T07:55:46.910Z,68.10
2018-12-06T07:56:46.900Z,67.37
2018-12-06T07:57:46.890Z,68.93
2018-12-06T07:58:46.874Z,68.13
2018-12-06T07:59:46.866Z,67.68
2018-12-06T08:00:46.854Z,68.10
2018-12-06T08:01:46.843Z,67.40
2018-12-06T08:02:46.833Z,67.27
2018-12-06T08:03:46.822Z,67.79
2018-12-06T08:04:46.812Z,67.89
2018-12-06T08:05:46.800Z,67.37
2018-12-06T08:06:46.789Z,68.20
2018-12-06T08:07:46.778Z,67.79
2018-12-06T08:08:46.767Z,67.68
2018-12-06T08:09:46.754Z,67.37
2018-12-06T08:10:46.756Z,67.79
2018-12-06T08:11:46.730Z,67.61
2018-12-06T08:13:05.349Z,67.68
2018-12-06T08:13:46.712Z,67.71
2018-12-06T08:14:46.701Z,67.61
2018-12-06T08:15:46.689Z,67.68
2018-12-06T08:16:46.675Z,67.92
2018-12-06T08:17:46.662Z,67.50
2018-12-06T08:18:46.653Z,67.47
2018-12-06T08:19:46.641Z,67.79
2018-12-06T08:20:46.636Z,67.37
2018-12-06T08:21:46.623Z,67.16
2018-12-06T08:22:46.615Z,67.58
2018-12-06T08:23:46.597Z,67.16
2018-12-06T08:24:46.589Z,67.47
2018-12-06T08:25:46.581Z,67.76
2018-12-06T08:26:46.569Z,67.34
2018-12-06T08:27:46.560Z,67.34
2018-12-06T08:29:04.685Z,67.55
2018-12-06T08:30:28.094Z,67.55
2018-12-06T08:31:46.211Z,67.34
2018-12-06T08:33:09.626Z,67.24
2018-12-06T08:34:09.608Z,68.17
2018-12-06T08:35:09.595Z,68.07
2018-12-06T08:36:09.579Z,66.93
2018-12-06T08:37:09.569Z,67.55
2018-12-06T08:38:09.559Z,67.44
2018-12-06T08:39:09.553Z,67.34
2018-12-06T08:40:09.540Z,67.44
2018-12-06T08:41:09.529Z,67.41
2018-12-06T08:42:09.517Z,68.96
2018-12-06T08:43:09.507Z,66.82
2018-12-06T08:44:09.491Z,69.00
2018-12-06T08:45:09.491Z,70.04
2018-12-06T08:46:09.473Z,67.86
2018-12-06T08:47:09.458Z,67.61
2018-12-06T08:48:09.451Z,67.82
2018-12-06T08:49:09.443Z,67.41
2018-12-06T08:50:09.427Z,69.21
2018-12-06T08:51:09.419Z,67.72
2018-12-06T08:52:09.405Z,66.58
2018-12-06T08:53:09.414Z,66.47
2018-12-06T08:54:09.424Z,66.78
2018-12-06T08:55:09.369Z,67.48
2018-12-06T08:56:09.359Z,67.30
2018-12-06T08:57:09.348Z,67.72
2018-12-06T08:58:09.342Z,66.99
2018-12-06T08:59:09.332Z,67.30
2018-12-06T09:00:09.321Z,66.65
2018-12-06T09:01:09.310Z,66.44
2018-12-06T09:02:09.295Z,67.20
2018-12-06T09:03:09.285Z,66.38
2018-12-06T09:04:09.277Z,67.20
2018-12-06T09:05:09.265Z,66.68
2018-12-06T09:06:09.256Z,66.27
2018-12-06T09:07:09.238Z,65.44
2018-12-06T09:08:09.229Z,66.44
2018-12-06T09:09:09.224Z,66.47
2018-12-06T09:10:09.211Z,67.27
2018-12-06T09:11:09.199Z,67.48
2018-12-06T09:12:09.185Z,66.86
2018-12-06T09:13:09.174Z,65.83
2018-12-06T09:14:09.162Z,66.24
2018-12-06T09:15:09.151Z,65.83
2018-12-06T09:16:09.144Z,66.55
2018-12-06T09:17:09.133Z,65.41
2018-12-06T09:18:09.122Z,66.65
2018-12-06T09:19:09.107Z,66.65
2018-12-06T09:20:09.101Z,65.72
2018-12-06T09:21:09.084Z,66.35
2018-12-06T09:22:09.079Z,65.83
2018-12-06T09:23:09.063Z,65.31
2018-12-06T09:24:09.056Z,67.07
2018-12-06T09:25:09.040Z,66.44
2018-12-06T09:26:09.031Z,66.35
2018-12-06T09:27:09.030Z,66.44
2018-12-06T09:28:09.008Z,66.55
2018-12-06T09:29:09.018Z,66.35
2018-12-06T09:30:08.986Z,66.44
2018-12-06T09:31:08.980Z,66.31
2018-12-06T09:32:08.966Z,66.52
2018-12-06T09:33:08.962Z,66.24
2018-12-06T09:34:08.944Z,65.80
2018-12-06T09:35:08.933Z,65.59
2018-12-06T09:36:08.919Z,65.69
2018-12-06T09:37:08.915Z,65.48
2018-12-06T09:38:08.902Z,65.83
2018-12-06T09:39:08.887Z,66.11
2018-12-06T09:40:08.876Z,65.48
2018-12-06T09:41:08.866Z,65.48
2018-12-06T09:42:08.858Z,65.59
2018-12-06T09:43:08.843Z,65.80
2018-12-06T09:44:08.837Z,65.28
2018-12-06T09:45:08.825Z,65.59
2018-12-06T09:46:08.814Z,66.21
2018-12-06T09:47:08.802Z,66.62
2018-12-06T09:48:08.790Z,66.31
2018-12-06T09:49:08.779Z,65.80
2018-12-06T09:50:08.765Z,65.90
2018-12-06T09:51:08.760Z,66.62
2018-12-06T09:52:08.745Z,67.14
2018-12-06T09:53:08.738Z,66.62
2018-12-06T09:54:08.726Z,66.62
2018-12-06T09:55:08.711Z,66.52
2018-12-06T09:56:08.706Z,66.62
2018-12-06T09:57:08.695Z,66.72
2018-12-06T09:58:08.681Z,65.80
2018-12-06T09:59:08.671Z,66.21
2018-12-06T10:00:08.656Z,66.69
2018-12-06T10:01:08.651Z,66.18
2018-12-06T10:02:08.640Z,66.62
2018-12-06T10:03:08.628Z,65.77
2018-12-06T10:04:08.612Z,65.66
2018-12-06T10:05:08.602Z,65.77
2018-12-06T10:06:08.597Z,65.90
2018-12-06T10:07:08.583Z,65.66
2018-12-06T10:08:08.575Z,65.14
2018-12-06T10:09:08.567Z,65.45
2018-12-06T10:10:08.547Z,65.28
2018-12-06T10:11:08.540Z,65.56
2018-12-06T10:12:08.524Z,65.97
2018-12-06T10:13:08.518Z,65.87
2018-12-06T10:14:08.510Z,65.69
2018-12-06T10:15:08.490Z,65.59
2018-12-06T10:16:08.487Z,66.18
2018-12-06T10:17:08.474Z,66.59
2018-12-06T10:18:08.457Z,65.66
2018-12-06T10:19:08.456Z,65.45
2018-12-06T10:20:08.439Z,65.45
2018-12-06T10:21:08.430Z,65.04
2018-12-06T10:22:08.419Z,64.73
2018-12-06T10:23:08.404Z,65.87
2018-12-06T10:24:08.398Z,65.45
2018-12-06T10:25:08.381Z,65.66
2018-12-06T10:26:08.378Z,65.04
2018-12-06T10:27:08.358Z,65.25
2018-12-06T10:28:08.354Z,65.97
2018-12-06T10:29:08.336Z,64.73
2018-12-06T10:30:08.326Z,65.97
2018-12-06T10:31:08.322Z,65.66
2018-12-06T10:32:08.303Z,65.77
2018-12-06T10:33:08.316Z,65.77
2018-12-06T10:34:08.286Z,65.35
2018-12-06T10:35:08.276Z,65.77
2018-12-06T10:36:08.260Z,66.46
2018-12-06T10:37:08.248Z,65.84
2018-12-06T10:38:08.238Z,65.53
2018-12-06T10:39:08.228Z,65.56
2018-12-06T10:40:08.215Z,65.22
2018-12-06T10:41:08.211Z,65.63
2018-12-06T10:42:08.194Z,65.42
2018-12-06T10:43:08.187Z,65.94
2018-12-06T10:44:08.176Z,65.35
2018-12-06T10:45:08.160Z,65.66
2018-12-06T10:46:08.154Z,65.97
2018-12-06T10:47:08.142Z,65.73
2018-12-06T10:48:08.132Z,64.49
2018-12-06T10:49:08.121Z,65.32
2018-12-06T10:50:08.106Z,65.53
2018-12-06T10:51:08.094Z,65.73
2018-12-06T10:52:08.089Z,65.53
2018-12-06T10:53:08.073Z,65.77
2018-12-06T10:54:08.069Z,65.84
2018-12-06T10:55:08.056Z,65.53
2018-12-06T10:56:08.044Z,65.84
2018-12-06T10:57:08.032Z,65.53
2018-12-06T10:58:08.017Z,66.46
2018-12-06T10:59:08.014Z,66.49
2018-12-06T11:00:07.995Z,66.77
2018-12-06T11:01:07.984Z,66.77
2018-12-06T11:02:07.978Z,66.87
2018-12-06T11:03:07.968Z,66.46
2018-12-06T11:04:07.951Z,66.46
2018-12-06T11:05:07.946Z,66.15
2018-12-06T11:06:07.934Z,66.66
2018-12-06T11:07:07.918Z,66.77
2018-12-06T11:08:07.907Z,66.84
2018-12-06T11:09:07.896Z,66.02
2018-12-06T11:10:07.891Z,65.91
2018-12-06T11:11:07.879Z,65.81
2018-12-06T11:12:07.863Z,65.60
2018-12-06T11:13:07.851Z,64.87
2018-12-06T11:14:07.847Z,64.98
2018-12-06T11:15:07.830Z,65.39
2018-12-06T11:16:07.832Z,65.39
2018-12-06T11:17:07.813Z,65.08
2018-12-06T11:18:07.802Z,65.08
2018-12-06T11:19:07.790Z,65.60
2018-12-06T11:20:07.778Z,65.19
2018-12-06T11:21:07.764Z,66.12
2018-12-06T11:22:07.761Z,66.12
2018-12-06T11:23:07.742Z,66.53
2018-12-06T11:24:07.732Z,65.19
2018-12-06T11:25:07.720Z,65.50
2018-12-06T11:26:07.712Z,65.70
2018-12-06T11:27:07.704Z,65.50
2018-12-06T11:28:07.692Z,65.91
2018-12-06T11:29:07.681Z,65.50
2018-12-06T11:30:07.668Z,66.71
2018-12-06T11:31:07.659Z,66.09
2018-12-06T11:32:07.644Z,64.98
2018-12-06T11:33:07.635Z,66.29
2018-12-06T11:34:07.626Z,65.67
2018-12-06T11:35:07.610Z,66.39
2018-12-06T11:36:07.603Z,66.71
2018-12-06T11:37:07.595Z,65.88
2018-12-06T11:38:07.578Z,65.67
2018-12-06T11:39:07.570Z,66.09
2018-12-06T11:40:07.555Z,66.50
2018-12-06T11:41:07.559Z,66.19
2018-12-06T11:42:07.533Z,66.36
2018-12-06T11:43:07.523Z,66.60
2018-12-06T11:44:07.517Z,66.81
2018-12-06T11:45:07.508Z,66.47
2018-12-06T11:46:07.499Z,66.57
2018-12-06T11:47:07.482Z,66.50
2018-12-06T11:48:07.467Z,66.67
2018-12-06T11:49:07.462Z,66.57
2018-12-06T11:50:07.465Z,66.36
2018-12-06T11:51:07.439Z,66.99
2018-12-06T11:52:07.423Z,66.81
2018-12-06T11:53:07.420Z,66.78
2018-12-06T11:54:07.407Z,66.67
2018-12-06T11:55:07.391Z,66.36
2018-12-06T11:56:07.383Z,66.57
2018-12-06T11:57:07.370Z,67.02
2018-12-06T11:58:11.490Z,66.67
2018-12-06T11:59:07.346Z,67.30
2018-12-06T12:00:07.339Z,67.09
2018-12-06T12:01:07.333Z,66.57
2018-12-06T12:02:10.079Z,66.78
2018-12-06T12:03:07.308Z,67.19
2018-12-06T12:04:07.296Z,67.30
2018-12-06T12:05:07.284Z,67.19
2018-12-06T12:06:07.277Z,67.40
2018-12-06T12:07:07.257Z,67.40
2018-12-06T12:08:07.247Z,67.19
2018-12-06T12:09:07.240Z,67.19
2018-12-06T12:10:07.228Z,67.30
2018-12-06T12:11:07.219Z,67.30
2018-12-06T12:12:07.207Z,67.61
2018-12-06T12:13:07.200Z,67.09
2018-12-06T12:14:07.182Z,67.61
2018-12-06T12:15:07.175Z,67.19
2018-12-06T12:16:07.158Z,67.61
2018-12-06T12:17:07.153Z,67.50
2018-12-06T12:18:07.138Z,66.99
2018-12-06T12:19:07.130Z,67.91
2018-12-06T12:20:07.115Z,67.88
2018-12-06T12:21:07.104Z,67.68
2018-12-06T12:22:07.102Z,67.78
2018-12-06T12:23:07.088Z,67.58
2018-12-06T12:24:07.076Z,68.71
2018-12-06T12:25:07.065Z,67.58
2018-12-06T12:26:07.049Z,67.37
2018-12-06T12:27:07.133Z,68.02
2018-12-06T12:28:07.031Z,68.51
2018-12-06T12:29:07.023Z,68.12
2018-12-06T12:30:07.079Z,67.68
2018-12-06T12:31:07.047Z,67.91
2018-12-06T12:32:06.986Z,68.71
2018-12-06T12:33:06.976Z,68.64
2018-12-06T12:34:06.968Z,68.85
2018-12-06T12:35:06.963Z,69.23
2018-12-06T12:36:06.943Z,69.64
2018-12-06T12:37:06.936Z,68.92
2018-12-06T12:38:06.925Z,68.92
2018-12-06T12:39:06.905Z,68.85
2018-12-06T12:40:06.894Z,68.85
2018-12-06T12:41:06.887Z,69.43
2018-12-06T12:42:06.876Z,69.12
2018-12-06T12:43:06.867Z,69.23
2018-12-06T12:44:06.854Z,69.02
2018-12-06T12:45:06.840Z,70.06
2018-12-06T12:46:06.840Z,69.54
2018-12-06T12:47:06.817Z,68.82
2018-12-06T12:48:06.810Z,69.43
2018-12-06T12:49:06.800Z,69.54
2018-12-06T12:50:06.784Z,69.74
2018-12-06T12:51:06.780Z,69.54
2018-12-06T12:52:06.766Z,69.43
2018-12-06T12:53:06.759Z,69.43
2018-12-06T12:54:06.745Z,69.85
2018-12-06T12:55:06.728Z,70.26
2018-12-06T12:56:06.723Z,69.85
2018-12-06T12:57:06.714Z,70.16
2018-12-06T12:58:06.701Z,70.47
2018-12-06T12:59:06.690Z,70.26
2018-12-06T13:00:06.683Z,70.98
2018-12-06T13:01:06.668Z,70.67
2018-12-06T13:02:06.655Z,70.06
2018-12-06T13:03:06.648Z,71.09